Ida — C4CZ2 — position and weather

sailwx.info

Track history (hours):
 
Tides and Currents Weather Stations Pressure Air Temp Water Temp Dewpoint Dewpoint Depression Visibility Wind Speed Wind Dir Waves Ship Positions

Ida

Last reported at 2014-Sep-09 00:33 UTC. Time now 2014-Sep-16 11:32 UTC.
Position N 48°01' W 006°27'.

Length 82 m; draft 3.2 m.

Type: Cargo ship. MMSI: 210319000.

Date/timePositionNaut miles runAvg speedWind from/ knotsBaromVisibWave heightAir tempDewpointWater temp
2014-Sep-09 00:33N 48°01' W 006°27'9 8.5
2014-Sep-08 23:33N 48°08' W 006°22'9 9.1
2014-Sep-08 22:33N 48°16' W 006°15'1010.4
2014-Sep-08 21:33N 48°25' W 006°08'1110.8
2014-Sep-08 20:33N 48°35' W 006°01'1111.0
2014-Sep-08 19:33N 48°45' W 005°52'19 9.4
2014-Sep-08 17:33N 48°58' W 005°32'249 9.2
2014-Sep-07 14:31N 50°36' E 000°22'1010.5
2014-Sep-07 13:33N 50°40' E 000°37'10 9.9
2014-Sep-07 12:33N 50°45' E 000°50'9 8.9
2014-Sep-07 11:33N 50°51' E 001°01'17 7.5
2014-Sep-07 09:18N 51°02' E 001°22'6 8.1
2014-Sep-07 08:33N 51°05' E 001°29'10 9.7
2014-Sep-07 07:33N 51°13' E 001°39'1211.7
2014-Sep-07 06:33N 51°24' E 001°43'1111.4
2014-Sep-07 05:33N 51°36' E 001°45'1110.6
2014-Sep-07 04:33N 51°46' E 001°44'10 9.5
2014-Sep-07 03:33N 51°56' E 001°44'8 8.4
2014-Sep-07 02:33N 52°04' E 001°47'8 7.8
2014-Sep-07 01:33N 52°12' E 001°49'7 7.4
2014-Sep-07 00:33N 52°19' E 001°51'7 7.3
2014-Sep-06 23:33N 52°26' E 001°53'7 7.0
2014-Sep-06 22:33N 52°33' E 001°54'8 7.9
2014-Sep-06 21:33N 52°41' E 001°55'8 7.8
2014-Sep-06 20:33N 52°48' E 001°48'10 9.9
2014-Sep-06 19:33N 52°54' E 001°36'1010.5
2014-Sep-06 18:33N 53°03' E 001°26'6910.7
2014-Sep-06 12:07N 54°03' E 000°30'6 9.8
2014-Sep-06 11:33N 54°07' E 000°23'10 9.6
2014-Sep-06 10:33N 54°15' E 000°16'9 9.1
2014-Sep-06 09:33N 54°24' E 000°10'9 8.7
2014-Sep-06 08:33N 54°32' E 000°04'8 8.5
2014-Sep-06 07:33N 54°39' W 000°03'8 8.5
2014-Sep-06 06:34N 54°47' W 000°09'9 8.8
2014-Sep-06 05:33N 54°55' W 000°15'147 3.9
2014-Sep-04 16:06N 57°09' W 002°05'0 0.0
2014-Sep-04 15:30N 57°09' W 002°05'0 0.0
2014-Sep-04 14:12N 57°09' W 002°05'0 0.0
2014-Sep-04 13:33N 57°09' W 002°05'0 0.0
2014-Sep-04 12:33N 57°09' W 002°05'0 0.0
2014-Sep-04 11:33N 57°09' W 002°05'0 0.0
2014-Sep-04 10:30N 57°09' W 002°05'0 0.0
2014-Sep-04 09:30N 57°09' W 002°05'0 0.0
2014-Sep-04 08:30N 57°09' W 002°05'0 0.0
2014-Sep-04 07:33N 57°09' W 002°05'0 0.0
2014-Sep-04 06:33N 57°09' W 002°05'0 0.0
2014-Sep-04 05:33N 57°09' W 002°05'0 0.0
2014-Sep-04 04:30N 57°09' W 002°05'0 0.0
2014-Sep-04 02:30N 57°09' W 002°05'0 0.0
2014-Sep-04 00:18N 57°09' W 002°05'20 1.2
2014-Sep-03 07:23N 57°11' W 001°28'377 9.2
2014-Sep-01 14:29N 57°47' E 010°10'9 9.8
2014-Sep-01 13:33N 57°48' E 010°27'10 9.8
2014-Sep-01 12:33N 57°48' E 010°45'8 7.8
2014-Sep-01 11:33N 57°41' E 010°39'0 0.2
2014-Sep-01 10:31N 57°41' E 010°39'0 0.0
2014-Sep-01 09:31N 57°41' E 010°39'0 0.0
2014-Sep-01 07:10N 57°41' E 010°39'0 0.0
2014-Sep-01 06:31N 57°41' E 010°39'0 0.0
2014-Sep-01 05:31N 57°41' E 010°39'0 0.0
2014-Sep-01 02:31N 57°41' E 010°39'0 0.0
2014-Sep-01 01:31N 57°41' E 010°39'0 0.0
2014-Aug-31 22:31N 57°41' E 010°39'0 0.0
2014-Aug-31 21:31N 57°41' E 010°39'0 0.0
2014-Aug-31 20:28N 57°41' E 010°39'0 0.0
2014-Aug-31 18:10N 57°41' E 010°39'0 0.0
2014-Aug-31 17:31N 57°41' E 010°39'0 0.0
2014-Aug-31 16:31N 57°41' E 010°39'0 0.0
2014-Aug-31 13:28N 57°41' E 010°39'0 0.0
2014-Aug-31 12:31N 57°41' E 010°39'0 0.0
2014-Aug-31 09:31N 57°41' E 010°39'0 0.0
2014-Aug-31 08:31N 57°41' E 010°39'0 0.0
2014-Aug-31 07:31N 57°41' E 010°39'0 0.0
2014-Aug-31 06:28N 57°41' E 010°39'0 0.0
2014-Aug-31 05:28N 57°41' E 010°39'0 0.0
2014-Aug-31 04:31N 57°41' E 010°39'0 0.0
2014-Aug-31 03:31N 57°41' E 010°39'0 0.0
2014-Aug-31 00:31N 57°41' E 010°39'0 0.0
2014-Aug-30 23:31N 57°41' E 010°39'1 0.3
2014-Aug-30 20:31N 57°42' E 010°38'0 0.0
2014-Aug-30 19:31N 57°42' E 010°38'0 0.0
2014-Aug-30 16:22N 57°41' E 010°38'0 0.0
2014-Aug-30 15:34N 57°41' E 010°38'0 0.0
2014-Aug-30 14:34N 57°41' E 010°38'0 0.0
2014-Aug-30 11:31N 57°41' E 010°38'0 0.0
2014-Aug-30 10:31N 57°41' E 010°38'0 0.0
2014-Aug-30 07:31N 57°41' E 010°38'0 0.0
2014-Aug-30 06:31N 57°41' E 010°38'0 0.0
2014-Aug-30 05:31N 57°41' E 010°38'0 0.0
2014-Aug-30 03:25N 57°41' E 010°38'0 0.0
2014-Aug-30 02:31N 57°41' E 010°38'0 0.0
2014-Aug-30 01:31N 57°41' E 010°38'  
Track history (hours):
 
Tides and Currents Weather Stations Pressure Air Temp Water Temp Dewpoint Dewpoint Depression Visibility Wind Speed Wind Dir Waves Ship Positions

Ida

Last reported at 2014-Sep-09 00:33 UTC. Time now 2014-Sep-16 11:32 UTC.
Position N 48°01' W 006°27'.

Length 82 m; draft 3.2 m.

Type: Cargo ship. MMSI: 210319000.

Date/timePositionNaut miles runAvg speedWind from/ knotsBaromVisibWave heightAir tempDewpointWater temp
2014-Sep-09 00:33N 48°01' W 006°27'9 8.5
2014-Sep-08 23:33N 48°08' W 006°22'9 9.1
2014-Sep-08 22:33N 48°16' W 006°15'1010.4
2014-Sep-08 21:33N 48°25' W 006°08'1110.8
2014-Sep-08 20:33N 48°35' W 006°01'1111.0
2014-Sep-08 19:33N 48°45' W 005°52'19 9.4
2014-Sep-08 17:33N 48°58' W 005°32'249 9.2
2014-Sep-07 14:31N 50°36' E 000°22'1010.5
2014-Sep-07 13:33N 50°40' E 000°37'10 9.9
2014-Sep-07 12:33N 50°45' E 000°50'9 8.9
2014-Sep-07 11:33N 50°51' E 001°01'17 7.5
2014-Sep-07 09:18N 51°02' E 001°22'6 8.1
2014-Sep-07 08:33N 51°05' E 001°29'10 9.7
2014-Sep-07 07:33N 51°13' E 001°39'1211.7
2014-Sep-07 06:33N 51°24' E 001°43'1111.4
2014-Sep-07 05:33N 51°36' E 001°45'1110.6
2014-Sep-07 04:33N 51°46' E 001°44'10 9.5
2014-Sep-07 03:33N 51°56' E 001°44'8 8.4
2014-Sep-07 02:33N 52°04' E 001°47'8 7.8
2014-Sep-07 01:33N 52°12' E 001°49'7 7.4
2014-Sep-07 00:33N 52°19' E 001°51'7 7.3
2014-Sep-06 23:33N 52°26' E 001°53'7 7.0
2014-Sep-06 22:33N 52°33' E 001°54'8 7.9
2014-Sep-06 21:33N 52°41' E 001°55'8 7.8
2014-Sep-06 20:33N 52°48' E 001°48'10 9.9
2014-Sep-06 19:33N 52°54' E 001°36'1010.5
2014-Sep-06 18:33N 53°03' E 001°26'6910.7
2014-Sep-06 12:07N 54°03' E 000°30'6 9.8
2014-Sep-06 11:33N 54°07' E 000°23'10 9.6
2014-Sep-06 10:33N 54°15' E 000°16'9 9.1
2014-Sep-06 09:33N 54°24' E 000°10'9 8.7
2014-Sep-06 08:33N 54°32' E 000°04'8 8.5
2014-Sep-06 07:33N 54°39' W 000°03'8 8.5
2014-Sep-06 06:34N 54°47' W 000°09'9 8.8
2014-Sep-06 05:33N 54°55' W 000°15'147 3.9
2014-Sep-04 16:06N 57°09' W 002°05'0 0.0
2014-Sep-04 15:30N 57°09' W 002°05'0 0.0
2014-Sep-04 14:12N 57°09' W 002°05'0 0.0
2014-Sep-04 13:33N 57°09' W 002°05'0 0.0
2014-Sep-04 12:33N 57°09' W 002°05'0 0.0
2014-Sep-04 11:33N 57°09' W 002°05'0 0.0
2014-Sep-04 10:30N 57°09' W 002°05'0 0.0
2014-Sep-04 09:30N 57°09' W 002°05'0 0.0
2014-Sep-04 08:30N 57°09' W 002°05'0 0.0
2014-Sep-04 07:33N 57°09' W 002°05'0 0.0
2014-Sep-04 06:33N 57°09' W 002°05'0 0.0
2014-Sep-04 05:33N 57°09' W 002°05'0 0.0
2014-Sep-04 04:30N 57°09' W 002°05'0 0.0
2014-Sep-04 02:30N 57°09' W 002°05'0 0.0
2014-Sep-04 00:18N 57°09' W 002°05'20 1.2
2014-Sep-03 07:23N 57°11' W 001°28'377 9.2
2014-Sep-01 14:29N 57°47' E 010°10'9 9.8
2014-Sep-01 13:33N 57°48' E 010°27'10 9.8
2014-Sep-01 12:33N 57°48' E 010°45'8 7.8
2014-Sep-01 11:33N 57°41' E 010°39'0 0.2
2014-Sep-01 10:31N 57°41' E 010°39'0 0.0
2014-Sep-01 09:31N 57°41' E 010°39'0 0.0
2014-Sep-01 07:10N 57°41' E 010°39'0 0.0
2014-Sep-01 06:31N 57°41' E 010°39'0 0.0
2014-Sep-01 05:31N 57°41' E 010°39'0 0.0
2014-Sep-01 02:31N 57°41' E 010°39'0 0.0
2014-Sep-01 01:31N 57°41' E 010°39'0 0.0
2014-Aug-31 22:31N 57°41' E 010°39'0 0.0
2014-Aug-31 21:31N 57°41' E 010°39'0 0.0
2014-Aug-31 20:28N 57°41' E 010°39'0 0.0
2014-Aug-31 18:10N 57°41' E 010°39'0 0.0
2014-Aug-31 17:31N 57°41' E 010°39'0 0.0
2014-Aug-31 16:31N 57°41' E 010°39'0 0.0
2014-Aug-31 13:28N 57°41' E 010°39'0 0.0
2014-Aug-31 12:31N 57°41' E 010°39'0 0.0
2014-Aug-31 09:31N 57°41' E 010°39'0 0.0
2014-Aug-31 08:31N 57°41' E 010°39'0 0.0
2014-Aug-31 07:31N 57°41' E 010°39'0 0.0
2014-Aug-31 06:28N 57°41' E 010°39'0 0.0
2014-Aug-31 05:28N 57°41' E 010°39'0 0.0
2014-Aug-31 04:31N 57°41' E 010°39'0 0.0
2014-Aug-31 03:31N 57°41' E 010°39'0 0.0
2014-Aug-31 00:31N 57°41' E 010°39'0 0.0
2014-Aug-30 23:31N 57°41' E 010°39'1 0.3
2014-Aug-30 20:31N 57°42' E 010°38'0 0.0
2014-Aug-30 19:31N 57°42' E 010°38'0 0.0
2014-Aug-30 16:22N 57°41' E 010°38'0 0.0
2014-Aug-30 15:34N 57°41' E 010°38'0 0.0
2014-Aug-30 14:34N 57°41' E 010°38'0 0.0
2014-Aug-30 11:31N 57°41' E 010°38'0 0.0
2014-Aug-30 10:31N 57°41' E 010°38'0 0.0
2014-Aug-30 07:31N 57°41' E 010°38'0 0.0
2014-Aug-30 06:31N 57°41' E 010°38'0 0.0
2014-Aug-30 05:31N 57°41' E 010°38'0 0.0
2014-Aug-30 03:25N 57°41' E 010°38'0 0.0
2014-Aug-30 02:31N 57°41' E 010°38'0 0.0
2014-Aug-30 01:31N 57°41' E 010°38'  

Dump ship's entire track history